Time;durP1;ratioP1;P1;durP2;ratioP2;P2;SDS_P1;SDS_P2;PMS_P1;PMS_P2;Temp;Humidity;BMP_temperature;BMP_pressure;BME280_temperature;BME280_humidity;BME280_pressure;Samples;Min_cycle;Max_cycle;Signal;HPM_P1;HPM_P2
2023/06/10 00:00:15;;;;;;;9.30;8.60;;;19.40;1.00;;;;;;5115188;28;20538;-42
2023/06/10 00:02:42;;;;;;;8.70;8.10;;;19.40;1.00;;;;;;5115645;28;20468;-44
2023/06/10 00:05:08;;;;;;;9.50;8.70;;;19.40;1.00;;;;;;5116269;28;20421;-41
2023/06/10 00:07:37;;;;;;;9.67;9.00;;;19.40;1.00;;;;;;5117146;28;20823;-42
2023/06/10 00:10:05;;;;;;;9.73;8.90;;;19.40;1.00;;;;;;5116912;28;20433;-43
2023/06/10 00:12:37;;;;;;;9.90;9.20;;;19.40;1.00;;;;;;5116358;28;20416;-42
2023/06/10 00:15:05;;;;;;;9.13;8.40;;;19.40;1.00;;;;;;5115537;28;20734;-45
2023/06/10 00:17:30;;;;;;;8.93;8.33;;;19.30;1.00;;;;;;5116005;28;20444;-42
2023/06/10 00:19:57;;;;;;;9.50;8.80;;;19.30;1.00;;;;;;5116191;28;20425;-41
2023/06/10 00:22:24;;;;;;;10.33;9.40;;;19.30;1.00;;;;;;5115755;28;20232;-42
2023/06/10 00:24:50;;;;;;;9.40;8.70;;;19.30;1.00;;;;;;5098261;28;20453;-42
2023/06/10 00:27:16;;;;;;;9.80;9.00;;;19.30;1.00;;;;;;5117386;28;20413;-41
2023/06/10 00:29:42;;;;;;;9.50;8.73;;;19.30;1.00;;;;;;5117028;28;20651;-42
2023/06/10 00:32:08;;;;;;;9.67;8.90;;;19.30;1.00;;;;;;5116616;28;20199;-43
2023/06/10 00:34:36;;;;;;;9.87;9.07;;;19.30;1.00;;;;;;5116924;28;20492;-42
2023/06/10 00:37:03;;;;;;;10.50;9.70;;;19.20;1.00;;;;;;5101964;28;20823;-44
2023/06/10 00:39:28;;;;;;;14.50;9.20;;;19.20;1.00;;;;;;5102422;28;20410;-44
2023/06/10 00:41:54;;;;;;;8.97;8.20;;;19.20;1.00;;;;;;5119671;28;20417;-41
2023/06/10 00:44:19;;;;;;;10.67;9.87;;;19.10;1.00;;;;;;5101286;28;20271;-41
2023/06/10 00:46:45;;;;;;;9.63;8.93;;;19.20;1.00;;;;;;5119986;28;20322;-43
2023/06/10 00:49:11;;;;;;;8.73;8.03;;;19.10;1.00;;;;;;5101983;28;20293;-43
2023/06/10 00:51:37;;;;;;;8.97;8.17;;;19.20;1.00;;;;;;5119706;28;20275;-42
2023/06/10 00:54:03;;;;;;;9.37;8.47;;;19.20;1.00;;;;;;5117880;28;20274;-42
2023/06/10 00:56:28;;;;;;;8.73;7.93;;;19.20;1.00;;;;;;5099198;28;20261;-42
2023/06/10 00:58:54;;;;;;;9.60;8.80;;;19.10;1.00;;;;;;5117152;28;20434;-42
2023/06/10 01:01:20;;;;;;;8.80;8.10;;;19.10;1.00;;;;;;5117655;28;20348;-42
2023/06/10 01:03:47;;;;;;;9.30;8.50;;;19.10;1.00;;;;;;5118885;28;20513;-43
2023/06/10 01:06:47;;;;;;;9.33;8.63;;;19.10;1.00;;;;;;5118572;28;20450;-41
2023/06/10 01:09:37;;;;;;;9.70;8.80;;;19.10;1.00;;;;;;5118015;28;20416;-42
2023/06/10 01:12:12;;;;;;;9.33;8.57;;;19.10;1.00;;;;;;5118460;28;20711;-43
2023/06/10 01:14:38;;;;;;;9.40;8.60;;;19.00;1.00;;;;;;5100755;28;20795;-43
2023/06/10 01:17:09;;;;;;;10.20;8.07;;;19.00;1.00;;;;;;5100896;28;20429;-41
2023/06/10 01:19:36;;;;;;;9.37;8.67;;;18.90;1.00;;;;;;5100169;28;20552;-43
2023/06/10 01:22:02;;;;;;;9.43;8.63;;;19.00;1.00;;;;;;5118139;28;20486;-44
2023/06/10 01:24:28;;;;;;;10.77;9.87;;;19.00;1.00;;;;;;5117676;28;20421;-44
2023/06/10 01:26:56;;;;;;;9.27;8.43;;;18.90;1.00;;;;;;5118209;28;20477;-42
2023/06/10 01:29:31;;;;;;;9.90;9.10;;;18.90;1.00;;;;;;5100582;28;20486;-41
2023/06/10 01:32:10;;;;;;;10.07;9.37;;;18.90;1.00;;;;;;5118583;28;20420;-43
2023/06/10 01:34:37;;;;;;;10.17;9.37;;;18.80;1.00;;;;;;5118339;28;20545;-44
2023/06/10 01:37:04;;;;;;;9.47;8.77;;;18.70;1.00;;;;;;5099587;28;20459;-43
2023/06/10 01:39:29;;;;;;;11.20;10.30;;;18.60;1.00;;;;;;5100007;28;20413;-43
2023/06/10 01:41:55;;;;;;;10.70;9.80;;;18.50;1.00;;;;;;5100125;28;20417;-45
2023/06/10 01:44:22;;;;;;;10.77;9.97;;;18.40;1.00;;;;;;5099528;28;20195;-44
2023/06/10 01:46:48;;;;;;;10.93;10.03;;;18.40;1.00;;;;;;5116992;28;20606;-43
2023/06/10 01:49:13;;;;;;;11.20;10.30;;;18.40;1.00;;;;;;5117594;28;20839;-44
2023/06/10 01:51:39;;;;;;;11.53;10.67;;;18.30;1.00;;;;;;5117405;28;20192;-44
2023/06/10 01:54:06;;;;;;;12.87;11.87;;;18.30;1.00;;;;;;5116851;28;20718;-42
2023/06/10 01:56:31;;;;;;;11.37;10.47;;;18.20;1.00;;;;;;5118211;28;20180;-43
2023/06/10 01:58:59;;;;;;;10.03;9.23;;;18.10;1.00;;;;;;5117197;28;20443;-42
2023/06/10 02:01:25;;;;;;;11.13;10.23;;;18.00;1.00;;;;;;5116494;28;20180;-42
2023/06/10 02:03:51;;;;;;;10.93;9.93;;;17.90;1.00;;;;;;5116175;28;20460;-41
2023/06/10 02:06:16;;;;;;;11.97;11.07;;;17.80;1.00;;;;;;5117031;28;20437;-40
2023/06/10 02:08:42;;;;;;;11.70;10.80;;;17.70;1.00;;;;;;5116873;28;20583;-42
2023/06/10 02:11:08;;;;;;;12.23;11.23;;;17.60;17.60;;;;;;5099329;28;20192;-41
2023/06/10 02:13:33;;;;;;;11.70;10.60;;;17.50;57.90;;;;;;5117723;28;20226;-43
2023/06/10 02:15:59;;;;;;;11.00;10.13;;;17.40;99.90;;;;;;5117621;28;20266;-42
2023/06/10 02:18:26;;;;;;;11.67;10.70;;;17.30;99.90;;;;;;5100248;28;20249;-43
2023/06/10 02:20:52;;;;;;;11.53;10.57;;;17.30;99.90;;;;;;5118019;28;20474;-43
2023/06/10 02:23:18;;;;;;;10.93;10.20;;;17.40;99.90;;;;;;5118121;28;20557;-42
2023/06/10 02:25:43;;;;;;;11.27;10.37;;;17.50;99.90;;;;;;5118471;28;20673;-43
2023/06/10 02:28:09;;;;;;;11.30;10.40;;;17.60;99.90;;;;;;5118374;28;20592;-42
2023/06/10 02:30:35;;;;;;;11.83;10.97;;;17.60;99.90;;;;;;5116730;28;20267;-42
2023/06/10 02:33:01;;;;;;;12.30;11.23;;;17.60;99.90;;;;;;5117668;28;20409;-42
2023/06/10 02:35:27;;;;;;;13.00;11.87;;;17.50;99.90;;;;;;5118073;28;20421;-42
2023/06/10 02:37:52;;;;;;;11.87;10.97;;;17.40;99.90;;;;;;5117698;28;20425;-43
2023/06/10 02:40:18;;;;;;;11.63;10.67;;;17.30;99.90;;;;;;5117425;28;20221;-43
2023/06/10 02:42:43;;;;;;;11.67;10.70;;;17.40;99.90;;;;;;5116735;28;20190;-43
2023/06/10 02:45:09;;;;;;;11.07;10.27;;;17.40;99.90;;;;;;5116696;28;20298;-42
2023/06/10 02:47:38;;;;;;;11.83;10.90;;;17.50;99.90;;;;;;5117073;28;20290;-41
2023/06/10 02:50:04;;;;;;;11.80;10.70;;;17.50;99.90;;;;;;5115758;28;20421;-44
2023/06/10 02:52:31;;;;;;;10.30;9.60;;;17.60;99.90;;;;;;5115362;28;20448;-41
2023/06/10 02:54:56;;;;;;;11.33;10.43;;;17.60;99.90;;;;;;5116445;28;20276;-41
2023/06/10 02:57:22;;;;;;;12.03;11.13;;;17.60;99.90;;;;;;5116411;28;20418;-44
2023/06/10 02:59:48;;;;;;;11.40;10.40;;;17.70;99.90;;;;;;5117090;28;20176;-41
2023/06/10 03:02:13;;;;;;;11.20;10.30;;;17.60;99.90;;;;;;5116534;28;20364;-42
2023/06/10 03:04:39;;;;;;;10.83;10.03;;;17.50;99.90;;;;;;5115709;28;20716;-41
2023/06/10 03:07:07;;;;;;;10.77;9.97;;;17.40;99.90;;;;;;5114453;28;20176;-43
2023/06/10 03:09:32;;;;;;;11.20;10.30;;;17.40;99.90;;;;;;5116543;28;20187;-42
2023/06/10 03:11:58;;;;;;;11.30;10.50;;;17.40;99.90;;;;;;5114159;28;20811;-43
2023/06/10 03:14:25;;;;;;;11.40;10.50;;;17.40;99.90;;;;;;5115012;28;20886;-41
2023/06/10 03:16:51;;;;;;;10.77;9.87;;;17.40;99.90;;;;;;5115208;28;20199;-45
2023/06/10 03:19:16;;;;;;;11.33;10.40;;;17.50;99.90;;;;;;5114932;28;20516;-43
2023/06/10 03:21:44;;;;;;;12.00;11.10;;;17.50;99.90;;;;;;5115287;28;20202;-41
2023/06/10 03:24:10;;;;;;;12.03;10.93;;;17.50;99.90;;;;;;5115752;28;20209;-44
2023/06/10 03:26:36;;;;;;;10.50;9.80;;;17.50;99.90;;;;;;5116122;28;20425;-42
2023/06/10 03:29:02;;;;;;;12.20;11.10;;;17.50;99.90;;;;;;5115489;28;20430;-43
2023/06/10 03:31:27;;;;;;;12.57;11.73;;;17.50;99.90;;;;;;5114989;28;20202;-43
2023/06/10 03:33:53;;;;;;;10.73;9.93;;;17.50;99.90;;;;;;5116174;28;20216;-41
2023/06/10 03:36:18;;;;;;;11.23;10.43;;;17.50;99.90;;;;;;5098548;28;20279;-42
2023/06/10 03:38:44;;;;;;;10.80;9.90;;;17.50;99.90;;;;;;5116129;28;20199;-42
2023/06/10 03:41:09;;;;;;;11.57;10.63;;;17.60;99.90;;;;;;5116092;28;20184;-43
2023/06/10 03:43:35;;;;;;;12.07;11.17;;;17.60;99.90;;;;;;5115529;28;20191;-41
2023/06/10 03:46:00;;;;;;;12.90;11.80;;;17.60;99.90;;;;;;5114238;28;20960;-43
2023/06/10 03:48:27;;;;;;;11.53;10.73;;;17.60;99.90;;;;;;5114746;28;20184;-46
2023/06/10 03:50:52;;;;;;;12.17;11.23;;;17.60;99.90;;;;;;5115127;28;20576;-41
2023/06/10 03:53:18;;;;;;;11.93;10.93;;;17.60;99.90;;;;;;5115169;28;20461;-41
2023/06/10 03:55:45;;;;;;;12.53;11.50;;;17.50;99.90;;;;;;5097668;28;20198;-41
2023/06/10 03:58:13;;;;;;;11.50;10.60;;;17.40;99.90;;;;;;5115984;28;20220;-43
2023/06/10 04:00:41;;;;;;;11.17;10.33;;;17.30;99.90;;;;;;5117021;28;20433;-43
2023/06/10 04:03:09;;;;;;;11.70;10.80;;;17.30;99.90;;;;;;5116581;28;20406;-42
2023/06/10 04:05:34;;;;;;;11.60;10.70;;;17.20;99.90;;;;;;5117504;28;20414;-42
2023/06/10 04:08:01;;;;;;;11.83;10.83;;;17.10;99.90;;;;;;5117286;28;20448;-42
2023/06/10 04:10:27;;;;;;;11.63;10.73;;;17.10;99.90;;;;;;5117005;28;20180;-43
2023/06/10 04:12:52;;;;;;;10.77;9.97;;;17.10;99.90;;;;;;5118257;28;20421;-42
2023/06/10 04:15:18;;;;;;;11.80;10.77;;;17.20;99.90;;;;;;5118690;28;20243;-43
2023/06/10 04:17:43;;;;;;;11.40;10.60;;;17.20;99.90;;;;;;5120490;28;20184;-42
2023/06/10 04:20:09;;;;;;;12.40;11.40;;;17.30;99.90;;;;;;5121088;28;20218;-43
2023/06/10 04:22:36;;;;;;;11.97;11.10;;;17.30;99.90;;;;;;5120499;28;20184;-41
2023/06/10 04:25:02;;;;;;;12.90;11.70;;;17.40;99.90;;;;;;5119785;28;20421;-41
2023/06/10 04:27:28;;;;;;;12.70;11.70;;;17.50;99.90;;;;;;5120025;28;20418;-41
2023/06/10 04:29:55;;;;;;;11.30;10.47;;;17.40;99.90;;;;;;5119812;28;20445;-42
2023/06/10 04:32:21;;;;;;;12.93;11.87;;;17.30;99.90;;;;;;5120405;28;20521;-44
2023/06/10 04:34:47;;;;;;;11.70;10.73;;;17.30;99.90;;;;;;5120126;28;20287;-43
2023/06/10 04:37:12;;;;;;;14.30;13.20;;;17.30;99.90;;;;;;5120706;28;20433;-43
2023/06/10 04:39:38;;;;;;;12.23;11.17;;;17.30;99.90;;;;;;5118909;28;20565;-44
2023/06/10 04:42:05;;;;;;;10.87;10.03;;;17.30;99.90;;;;;;5119011;28;20207;-45
2023/06/10 04:44:30;;;;;;;11.63;10.67;;;17.40;99.90;;;;;;5119543;28;20206;-43
2023/06/10 04:46:56;;;;;;;12.90;11.90;;;17.50;99.90;;;;;;5119551;28;20894;-41
2023/06/10 04:49:22;;;;;;;13.33;12.13;;;17.60;99.90;;;;;;5101922;28;20469;-43
2023/06/10 04:51:47;;;;;;;12.37;11.47;;;17.80;99.90;;;;;;5120224;28;20234;-43
2023/06/10 04:54:13;;;;;;;12.37;11.40;;;17.80;99.90;;;;;;5118489;28;20384;-42
2023/06/10 04:56:39;;;;;;;11.97;11.07;;;17.80;99.90;;;;;;5100804;28;20195;-41
2023/06/10 04:59:05;;;;;;;12.13;11.23;;;17.80;99.90;;;;;;5118872;28;20203;-44
2023/06/10 05:01:30;;;;;;;11.83;10.80;;;17.80;99.90;;;;;;5118678;28;20425;-43
2023/06/10 05:03:56;;;;;;;12.70;11.60;;;17.80;99.90;;;;;;5118984;28;20195;-41
2023/06/10 05:06:21;;;;;;;11.53;10.63;;;17.80;99.90;;;;;;5118260;28;20201;-42
2023/06/10 05:08:47;;;;;;;12.40;11.40;;;17.90;99.90;;;;;;5098900;28;20188;-42
2023/06/10 05:11:12;;;;;;;12.00;11.00;;;18.00;99.90;;;;;;5117500;28;20192;-46
2023/06/10 05:13:40;;;;;;;11.57;10.67;;;18.00;99.90;;;;;;5117452;28;20474;-41
2023/06/10 05:16:06;;;;;;;11.80;10.90;;;18.20;99.90;;;;;;5116451;28;20395;-43
2023/06/10 05:18:32;;;;;;;12.70;11.73;;;18.30;99.90;;;;;;5116363;28;20495;-42
2023/06/10 05:20:57;;;;;;;11.17;10.33;;;18.40;99.90;;;;;;5117356;28;20417;-42
2023/06/10 05:23:23;;;;;;;10.33;9.50;;;18.50;99.90;;;;;;5117325;28;20198;-44
2023/06/10 05:25:48;;;;;;;8.50;7.80;;;18.70;99.90;;;;;;5118301;28;20528;-42
2023/06/10 05:28:14;;;;;;;8.20;7.60;;;18.90;99.90;;;;;;5118874;28;20504;-46
2023/06/10 05:30:40;;;;;;;8.13;7.47;;;19.00;99.90;;;;;;5118337;28;20483;-41
2023/06/10 05:33:05;;;;;;;8.37;7.67;;;19.10;99.90;;;;;;5119910;28;20218;-44
2023/06/10 05:35:31;;;;;;;7.17;6.53;;;19.20;99.90;;;;;;5118883;28;20206;-42
2023/06/10 05:37:56;;;;;;;8.83;8.00;;;19.30;99.90;;;;;;5118255;28;20278;-44
2023/06/10 05:40:22;;;;;;;8.00;7.40;;;19.40;80.50;;;;;;5117222;28;20187;-42
2023/06/10 05:42:48;;;;;;;7.27;6.63;;;19.60;57.20;;;;;;5100137;28;20278;-45
2023/06/10 05:45:13;;;;;;;8.80;8.13;;;19.60;45.60;;;;;;5118741;28;20239;-42
2023/06/10 05:47:40;;;;;;;6.90;6.40;;;19.70;51.00;;;;;;5117583;28;20552;-44
2023/06/10 05:50:07;;;;;;;7.80;7.20;;;19.90;41.40;;;;;;5118038;28;20175;-43
2023/06/10 05:52:34;;;;;;;7.60;7.00;;;20.00;32.30;;;;;;5117961;28;20520;-42
2023/06/10 05:54:59;;;;;;;7.23;6.63;;;20.20;22.00;;;;;;5117279;28;20819;-43
2023/06/10 05:57:25;;;;;;;8.57;7.87;;;20.40;9.90;;;;;;5117292;28;20593;-43
2023/06/10 05:59:51;;;;;;;7.37;6.67;;;20.50;1.00;;;;;;5118059;28;20439;-43
2023/06/10 06:02:17;;;;;;;9.00;8.20;;;20.60;1.00;;;;;;5100534;28;20436;-43
2023/06/10 06:04:43;;;;;;;8.80;8.10;;;20.80;1.00;;;;;;5119422;28;20702;-42
2023/06/10 06:07:14;;;;;;;8.10;7.40;;;20.80;1.00;;;;;;5101601;28;20266;-44
2023/06/10 06:09:40;;;;;;;7.40;6.83;;;20.90;1.00;;;;;;5100422;28;20184;-42
2023/06/10 06:12:09;;;;;;;8.67;7.97;;;21.00;1.00;;;;;;5117896;28;20418;-43
2023/06/10 06:14:39;;;;;;;9.33;8.60;;;21.10;1.00;;;;;;5117356;28;20717;-43
2023/06/10 06:17:05;;;;;;;8.00;7.30;;;21.20;1.00;;;;;;5117939;28;20414;-43
2023/06/10 06:19:30;;;;;;;8.40;7.80;;;21.20;1.00;;;;;;5116319;28;20470;-42
2023/06/10 06:21:56;;;;;;;9.03;8.30;;;21.30;1.00;;;;;;5116564;28;20434;-41
2023/06/10 06:24:21;;;;;;;8.93;8.03;;;21.40;1.00;;;;;;5116262;28;20179;-42
2023/06/10 06:26:47;;;;;;;8.17;7.30;;;21.50;1.00;;;;;;5098520;28;20527;-43
2023/06/10 06:29:13;;;;;;;8.80;8.00;;;21.60;1.00;;;;;;5115811;28;20184;-42
2023/06/10 06:31:38;;;;;;;8.57;7.90;;;21.70;1.00;;;;;;5114016;28;20190;-44
2023/06/10 06:34:04;;;;;;;7.47;6.87;;;21.80;1.00;;;;;;5096175;28;20212;-44
2023/06/10 06:36:30;;;;;;;8.90;8.20;;;22.00;1.00;;;;;;5115169;28;20229;-43
2023/06/10 06:38:55;;;;;;;8.13;7.53;;;22.10;1.00;;;;;;5113755;28;20248;-44
2023/06/10 06:41:21;;;;;;;7.53;6.93;;;22.30;1.00;;;;;;5112933;28;20239;-44
2023/06/10 06:43:47;;;;;;;8.37;7.70;;;22.40;1.00;;;;;;5115022;28;20214;-43
2023/06/10 06:46:13;;;;;;;8.43;7.73;;;22.60;1.00;;;;;;5114872;28;20883;-42
2023/06/10 06:48:38;;;;;;;9.63;8.83;;;22.60;1.00;;;;;;5115568;28;20186;-43
2023/06/10 06:51:04;;;;;;;9.10;8.40;;;22.60;1.00;;;;;;5115046;28;20190;-42
2023/06/10 06:53:29;;;;;;;9.83;8.03;;;22.50;1.00;;;;;;5115520;28;20646;-44
2023/06/10 06:55:55;;;;;;;8.00;7.40;;;22.50;1.00;;;;;;5116695;28;20270;-42
2023/06/10 06:58:21;;;;;;;8.63;7.93;;;22.50;1.00;;;;;;5115399;28;20168;-42
2023/06/10 07:00:46;;;;;;;9.27;8.47;;;22.60;1.00;;;;;;5114760;28;20589;-43
2023/06/10 07:03:12;;;;;;;8.83;8.13;;;22.70;1.00;;;;;;5116877;28;20511;-43
2023/06/10 07:05:38;;;;;;;8.50;7.80;;;22.70;1.00;;;;;;5115431;28;20267;-42
2023/06/10 07:08:04;;;;;;;9.27;7.50;;;22.80;1.00;;;;;;5096035;28;20211;-44
2023/06/10 07:10:30;;;;;;;9.60;8.80;;;23.00;1.00;;;;;;5115126;28;20737;-43
2023/06/10 07:12:55;;;;;;;8.03;7.43;;;23.20;1.00;;;;;;5114291;28;20564;-44
2023/06/10 07:15:21;;;;;;;8.87;8.17;;;23.50;1.00;;;;;;5113933;28;20204;-47
2023/06/10 07:17:46;;;;;;;8.57;7.93;;;23.70;1.00;;;;;;5116338;28;20250;-40
2023/06/10 07:20:13;;;;;;;8.87;7.97;;;23.80;1.00;;;;;;5116571;28;20498;-42
2023/06/10 07:22:39;;;;;;;7.90;7.30;;;23.80;1.00;;;;;;5115625;28;20336;-47
2023/06/10 07:25:05;;;;;;;8.73;7.90;;;23.90;1.00;;;;;;5114956;28;20680;-41
2023/06/10 07:27:31;;;;;;;8.77;8.03;;;24.00;1.00;;;;;;5114946;28;20186;-40
2023/06/10 07:29:56;;;;;;;8.47;7.80;;;24.10;1.00;;;;;;5113796;28;20772;-43
2023/06/10 07:32:23;;;;;;;8.10;7.50;;;24.20;1.00;;;;;;5115517;28;20552;-42
2023/06/10 07:34:49;;;;;;;7.97;7.37;;;24.50;1.00;;;;;;5116096;28;20207;-42
2023/06/10 07:37:15;;;;;;;8.43;7.80;;;24.50;1.00;;;;;;5115885;28;20410;-41
2023/06/10 07:39:40;;;;;;;8.00;7.40;;;24.60;1.00;;;;;;5115858;28;20561;-43
2023/06/10 07:42:06;;;;;;;8.30;7.70;;;24.60;1.00;;;;;;5097700;28;20414;-44
2023/06/10 07:44:32;;;;;;;8.40;7.80;;;24.50;1.00;;;;;;5117231;28;20202;-42
2023/06/10 07:46:58;;;;;;;7.07;6.47;;;24.30;1.00;;;;;;5119889;28;20668;-41
2023/06/10 07:49:24;;;;;;;8.10;7.50;;;24.30;1.00;;;;;;5102864;28;20184;-43
2023/06/10 07:51:50;;;;;;;11.23;6.97;;;24.30;1.00;;;;;;5118737;28;20245;-46
2023/06/10 07:54:16;;;;;;;7.73;7.13;;;24.60;1.00;;;;;;5119271;28;20227;-44
2023/06/10 07:56:42;;;;;;;7.67;7.07;;;24.80;1.00;;;;;;5118074;28;20461;-43
2023/06/10 07:59:07;;;;;;;7.37;6.77;;;24.90;1.00;;;;;;5081571;28;20429;-43
2023/06/10 08:01:33;;;;;;;9.00;8.30;;;25.10;1.00;;;;;;5117310;28;20187;-42
2023/06/10 08:03:58;;;;;;;7.70;7.10;;;25.00;1.00;;;;;;5118081;28;20296;-42
2023/06/10 08:06:24;;;;;;;6.97;6.37;;;25.10;1.00;;;;;;5118997;28;20611;-44
2023/06/10 08:08:50;;;;;;;7.20;6.63;;;25.20;1.00;;;;;;5101818;28;20187;-44
2023/06/10 08:11:16;;;;;;;7.50;6.90;;;25.30;1.00;;;;;;5100582;28;20573;-43
2023/06/10 08:13:41;;;;;;;8.63;7.93;;;25.50;1.00;;;;;;5119701;28;20241;-42
2023/06/10 08:16:07;;;;;;;8.10;7.40;;;25.70;1.00;;;;;;5118836;28;20234;-43
2023/06/10 08:18:33;;;;;;;7.97;7.13;;;26.00;1.00;;;;;;5118403;28;20182;-44
2023/06/10 08:20:59;;;;;;;7.20;6.60;;;26.30;1.00;;;;;;5117519;28;20274;-43
2023/06/10 08:23:25;;;;;;;8.23;7.60;;;26.40;1.00;;;;;;5119193;28;20578;-43
2023/06/10 08:25:51;;;;;;;8.50;7.70;;;26.40;1.00;;;;;;5100978;28;20192;-42
2023/06/10 08:28:16;;;;;;;9.00;7.80;;;26.10;1.00;;;;;;5119228;28;20410;-43
2023/06/10 08:30:42;;;;;;;8.43;7.73;;;25.80;1.00;;;;;;5102117;28;20509;-42
2023/06/10 08:33:08;;;;;;;7.27;6.67;;;25.80;1.00;;;;;;5119911;28;20180;-43
2023/06/10 08:35:33;;;;;;;9.37;8.57;;;26.00;1.00;;;;;;5117978;28;20199;-43
2023/06/10 08:37:59;;;;;;;8.20;7.60;;;26.30;1.00;;;;;;5118232;28;20450;-41
2023/06/10 08:40:25;;;;;;;7.60;7.00;;;26.60;1.00;;;;;;5099148;28;20184;-42
2023/06/10 08:43:04;;;;;;;7.90;7.17;;;26.90;1.00;;;;;;5118821;28;20834;-43
2023/06/10 08:45:35;;;;;;;8.80;8.20;;;27.10;1.00;;;;;;5118696;28;20246;-42
2023/06/10 08:48:08;;;;;;;8.00;7.37;;;27.10;1.00;;;;;;5118765;28;20434;-45
2023/06/10 08:50:38;;;;;;;8.37;7.63;;;27.10;1.00;;;;;;5117995;28;20424;-42
2023/06/10 08:53:07;;;;;;;9.07;8.27;;;27.30;1.00;;;;;;5115409;28;20461;-43
2023/06/10 08:55:36;;;;;;;7.60;6.90;;;27.00;1.00;;;;;;5113832;28;20519;-42
2023/06/10 08:58:02;;;;;;;7.93;7.30;;;27.10;1.00;;;;;;5115046;28;20436;-45
2023/06/10 09:00:29;;;;;;;8.30;7.50;;;27.20;1.00;;;;;;5118453;27;20417;-44
2023/06/10 09:02:57;;;;;;;7.47;6.87;;;27.40;1.00;;;;;;5118019;27;20417;-44
2023/06/10 09:05:22;;;;;;;7.80;7.20;;;27.60;1.00;;;;;;5136784;27;20421;-46
2023/06/10 09:07:48;;;;;;;7.50;7.00;;;27.80;1.00;;;;;;5118896;27;20467;-46
2023/06/10 09:10:15;;;;;;;6.90;6.30;;;28.10;1.00;;;;;;5139139;27;20194;-45
2023/06/10 09:12:40;;;;;;;7.37;6.63;;;28.10;1.00;;;;;;5120574;27;20458;-45
2023/06/10 09:15:07;;;;;;;6.90;6.20;;;28.50;1.00;;;;;;5138240;27;20435;-45
2023/06/10 09:17:33;;;;;;;6.93;6.43;;;28.70;1.00;;;;;;5137612;27;20183;-43
2023/06/10 09:20:00;;;;;;;7.30;6.80;;;28.70;1.00;;;;;;5118909;27;20696;-47
2023/06/10 09:22:26;;;;;;;7.40;6.87;;;28.70;1.00;;;;;;5118992;27;20211;-46
2023/06/10 09:25:09;;;;;;;7.03;6.33;;;28.60;1.00;;;;;;5119805;27;20417;-46
2023/06/10 09:27:50;;;;;;;7.03;6.53;;;28.40;1.00;;;;;;5118381;27;20463;-46
2023/06/10 09:30:26;;;;;;;7.50;7.00;;;28.50;1.00;;;;;;5120769;27;20424;-45
2023/06/10 09:32:55;;;;;;;7.23;6.73;;;28.70;1.00;;;;;;5102520;27;20727;-46
2023/06/10 09:35:22;;;;;;;7.43;6.83;;;29.00;1.00;;;;;;5120937;27;20466;-46
2023/06/10 09:37:53;;;;;;;6.70;6.20;;;28.90;1.00;;;;;;5137850;27;20482;-47
2023/06/10 09:40:19;;;;;;;7.37;6.87;;;29.10;1.00;;;;;;5138696;27;20718;-43
2023/06/10 09:42:45;;;;;;;7.03;6.53;;;29.40;1.00;;;;;;5120544;27;20417;-45
2023/06/10 09:45:10;;;;;;;8.03;7.43;;;29.90;1.00;;;;;;5137179;27;20766;-44
2023/06/10 09:47:36;;;;;;;8.10;7.50;;;30.30;1.00;;;;;;5139262;27;20189;-45
2023/06/10 09:50:02;;;;;;;7.30;6.80;;;30.40;1.00;;;;;;5137913;27;20201;-43
2023/06/10 09:52:29;;;;;;;7.70;7.20;;;30.40;1.00;;;;;;5136315;27;20209;-46
2023/06/10 09:55:00;;;;;;;7.67;7.00;;;30.40;1.00;;;;;;5136232;27;20463;-46
2023/06/10 09:57:26;;;;;;;8.00;7.50;;;30.40;1.00;;;;;;5135174;27;20857;-47
2023/06/10 09:59:55;;;;;;;8.00;7.30;;;30.80;1.00;;;;;;5134733;27;20396;-46
2023/06/10 10:02:21;;;;;;;8.03;7.43;;;30.50;1.00;;;;;;5117726;27;20707;-44
2023/06/10 10:04:47;;;;;;;8.50;7.80;;;30.70;1.00;;;;;;5137622;27;20391;-45
2023/06/10 10:07:14;;;;;;;8.63;8.03;;;30.40;1.00;;;;;;5137389;27;20206;-46
2023/06/10 10:09:41;;;;;;;7.97;7.47;;;30.40;1.00;;;;;;5136491;27;20236;-46
2023/06/10 10:12:11;;;;;;;7.53;7.03;;;30.30;1.00;;;;;;5118041;27;20466;-43
2023/06/10 10:14:36;;;;;;;8.00;7.50;;;30.40;1.00;;;;;;5135786;27;20439;-45
2023/06/10 10:17:05;;;;;;;7.90;7.30;;;30.50;1.00;;;;;;5136520;27;20493;-45
2023/06/10 10:19:32;;;;;;;7.50;7.00;;;30.70;1.00;;;;;;5099428;27;20511;-45
2023/06/10 10:22:07;;;;;;;7.60;7.00;;;31.00;1.00;;;;;;5118347;27;20633;-47
2023/06/10 10:24:45;;;;;;;6.63;6.23;;;31.40;1.00;;;;;;5136701;27;20497;-45
2023/06/10 10:27:18;;;;;;;7.10;6.60;;;31.50;1.00;;;;;;5117832;27;20459;-45
2023/06/10 10:29:52;;;;;;;7.37;6.87;;;31.40;1.00;;;;;;5131915;27;20955;-45
2023/06/10 10:32:18;;;;;;;7.70;7.10;;;31.40;1.00;;;;;;5114731;28;20421;-45
2023/06/10 10:35:17;;;;;;;8.57;7.37;;;31.50;1.00;;;;;;5114674;28;20432;-44
2023/06/10 10:37:43;;;;;;;8.10;7.40;;;31.10;1.00;;;;;;5130185;27;20427;-46
2023/06/10 10:40:09;;;;;;;6.80;6.30;;;30.50;1.00;;;;;;5112876;28;20423;-43
2023/06/10 10:42:35;;;;;;;8.00;7.40;;;30.60;1.00;;;;;;5132497;27;20403;-46
2023/06/10 10:45:01;;;;;;;7.47;6.87;;;31.00;1.00;;;;;;5097517;27;20419;-44
2023/06/10 10:47:30;;;;;;;6.90;6.40;;;31.30;1.00;;;;;;5114222;28;20402;-46
2023/06/10 10:49:59;;;;;;;7.23;6.63;;;31.10;1.00;;;;;;5133356;27;20464;-43
2023/06/10 10:52:26;;;;;;;7.87;7.23;;;30.90;1.00;;;;;;5112285;27;20440;-45
2023/06/10 10:54:53;;;;;;;7.20;6.60;;;30.20;1.00;;;;;;5129196;28;20481;-45
2023/06/10 10:57:23;;;;;;;6.35;5.93;;;30.10;1.00;;;;;;5128856;28;20669;-45
2023/06/10 10:59:48;;;;;;;6.77;6.27;;;30.70;1.00;;;;;;5126918;27;20167;-44
2023/06/10 11:02:43;;;;;;;7.10;6.60;;;31.60;1.00;;;;;;5128399;28;20396;-44
2023/06/10 11:05:11;;;;;;;6.50;6.10;;;32.60;1.00;;;;;;5122453;27;20366;-46
2023/06/10 11:07:36;;;;;;;7.80;7.10;;;33.10;1.00;;;;;;5113270;28;20701;-46
2023/06/10 11:10:05;;;;;;;7.60;7.10;;;33.20;1.00;;;;;;5131459;28;20432;-43
2023/06/10 11:12:46;;;;;;;7.10;6.60;;;32.90;1.00;;;;;;5132668;27;20244;-44
2023/06/10 11:15:28;;;;;;;6.80;6.10;;;33.10;1.00;;;;;;5132448;27;20398;-43
2023/06/10 11:18:09;;;;;;;6.17;5.77;;;33.60;1.00;;;;;;5129274;27;20444;-42
2023/06/10 11:20:45;;;;;;;6.20;5.70;;;34.10;1.00;;;;;;5124458;27;20388;-45
2023/06/10 11:23:10;;;;;;;7.70;7.20;;;34.30;1.00;;;;;;5127618;28;20736;-43
2023/06/10 11:25:40;;;;;;;7.17;6.67;;;34.30;1.00;;;;;;5127419;27;20416;-46
2023/06/10 11:28:21;;;;;;;7.17;6.67;;;33.60;1.00;;;;;;5127881;27;20325;-47
2023/06/10 11:30:46;;;;;;;6.10;5.70;;;33.40;1.00;;;;;;5126493;28;20452;-44
2023/06/10 11:33:17;;;;;;;7.27;6.67;;;33.70;1.00;;;;;;5106687;28;20427;-44
2023/06/10 11:35:43;;;;;;;6.93;6.40;;;33.90;1.00;;;;;;5127806;27;20171;-42
2023/06/10 11:38:09;;;;;;;10.60;7.73;;;33.80;1.00;;;;;;5111211;27;21033;-45
2023/06/10 11:40:36;;;;;;;7.47;6.87;;;34.00;1.00;;;;;;5101077;28;20832;-45
2023/06/10 11:43:03;;;;;;;7.27;6.77;;;34.70;1.00;;;;;;5115924;28;20432;-43
2023/06/10 11:45:29;;;;;;;7.10;6.60;;;35.40;1.00;;;;;;5117733;28;20389;-43
2023/06/10 11:48:00;;;;;;;6.77;6.27;;;35.50;1.00;;;;;;5118478;28;20810;-44
2023/06/10 11:50:31;;;;;;;7.27;6.60;;;35.70;1.00;;;;;;5082451;28;20236;-42
2023/06/10 11:52:58;;;;;;;7.50;6.80;;;35.30;1.00;;;;;;5115394;28;20867;-44
2023/06/10 11:55:42;;;;;;;7.53;7.00;;;34.60;1.00;;;;;;5114795;28;20414;-45
2023/06/10 11:58:19;;;;;;;7.70;7.10;;;34.00;1.00;;;;;;5112723;28;20429;-43
2023/06/10 12:00:50;;;;;;;6.87;6.40;;;33.80;1.00;;;;;;5094675;28;21010;-43
2023/06/10 12:03:17;;;;;;;6.57;6.13;;;33.90;1.00;;;;;;5114447;28;20778;-46
2023/06/10 12:05:58;;;;;;;7.10;6.60;;;34.30;1.00;;;;;;5113213;28;20404;-43
2023/06/10 12:08:24;;;;;;;6.47;5.97;;;34.60;1.00;;;;;;5113315;28;20992;-48
2023/06/10 12:10:50;;;;;;;7.00;6.53;;;34.90;1.00;;;;;;5111138;28;20498;-45
2023/06/10 12:13:19;;;;;;;7.30;6.80;;;35.10;1.00;;;;;;5114016;28;20215;-43
2023/06/10 12:15:45;;;;;;;6.57;6.03;;;35.00;1.00;;;;;;5114624;28;21044;-42
2023/06/10 12:18:21;;;;;;;6.27;5.87;;;35.30;1.00;;;;;;5094164;28;20821;-43
2023/06/10 12:20:48;;;;;;;7.00;6.60;;;35.00;1.00;;;;;;5113426;28;20821;-44
2023/06/10 12:23:15;;;;;;;6.80;6.30;;;35.00;1.00;;;;;;5115944;28;20508;-43
2023/06/10 12:25:53;;;;;;;7.53;6.93;;;34.90;1.00;;;;;;5115801;28;20929;-45
2023/06/10 12:28:23;;;;;;;8.17;7.60;;;34.70;1.00;;;;;;5114012;28;20898;-43
2023/06/10 12:30:48;;;;;;;7.60;7.03;;;34.90;1.00;;;;;;5113924;28;20412;-45
2023/06/10 12:33:21;;;;;;;8.47;7.67;;;34.80;1.00;;;;;;5093493;28;20377;-44
2023/06/10 12:35:48;;;;;;;7.30;6.80;;;34.80;1.00;;;;;;5114301;28;20447;-43
2023/06/10 12:38:14;;;;;;;7.47;6.87;;;34.50;1.00;;;;;;5115534;28;20426;-45
2023/06/10 12:40:43;;;;;;;8.23;7.43;;;33.90;1.00;;;;;;5097589;28;20911;-43
2023/06/10 12:43:09;;;;;;;7.17;6.73;;;33.40;1.00;;;;;;5116118;28;20302;-44
2023/06/10 12:45:39;;;;;;;7.37;6.77;;;32.80;1.00;;;;;;5081468;28;20440;-46
2023/06/10 12:48:09;;;;;;;6.90;6.40;;;32.20;1.00;;;;;;5116420;28;20432;-43